createdAt,value
2023-03-05T00:00:24.428Z,1.76
2023-03-05T00:05:48.127Z,1.72
2023-03-05T00:11:03.970Z,1.69
2023-03-05T00:16:13.835Z,1.63
2023-03-05T00:21:23.908Z,1.58
2023-03-05T00:26:28.496Z,1.53
2023-03-05T00:31:34.536Z,1.49
2023-03-05T00:36:44.218Z,1.46
2023-03-05T00:41:49.978Z,1.44
2023-03-05T00:46:54.314Z,1.42
2023-03-05T00:51:59.400Z,1.40
2023-03-05T00:57:06.127Z,1.36
2023-03-05T01:02:11.623Z,1.34
2023-03-05T01:07:16.006Z,1.33
2023-03-05T01:12:20.598Z,1.30
2023-03-05T01:17:24.768Z,1.26
2023-03-05T01:22:30.270Z,1.21
2023-03-05T01:27:35.812Z,1.17
2023-03-05T01:32:40.154Z,1.13
2023-03-05T01:37:44.900Z,1.08
2023-03-05T01:43:16.880Z,1.06
2023-03-05T01:48:21.131Z,1.03
2023-03-05T01:53:25.614Z,1.00
2023-03-05T01:58:30.523Z,0.97
2023-03-05T02:03:35.242Z,0.92
2023-03-05T02:08:39.544Z,0.87
2023-03-05T02:13:43.301Z,0.84
2023-03-05T02:18:47.501Z,0.83
2023-03-05T02:23:52.823Z,0.82
2023-03-05T02:29:01.852Z,0.80
2023-03-05T02:34:06.826Z,0.79
2023-03-05T02:39:11.650Z,0.80
2023-03-05T02:44:16.133Z,0.84
2023-03-05T02:49:22.568Z,0.85
2023-03-05T02:54:30.538Z,0.84
2023-03-05T02:59:36.158Z,0.81
2023-03-05T03:04:40.865Z,0.76
2023-03-05T03:09:46.904Z,0.73
2023-03-05T03:14:51.494Z,0.68
2023-03-05T03:19:57.391Z,0.63
2023-03-05T03:25:02.675Z,0.59
2023-03-05T03:30:08.294Z,0.54
2023-03-05T03:35:13.893Z,0.49
2023-03-05T03:40:18.831Z,0.45
2023-03-05T03:45:23.645Z,0.41
2023-03-05T03:50:27.968Z,0.39
2023-03-05T03:55:33.076Z,0.36
2023-03-05T04:00:40.521Z,0.35
2023-03-05T04:05:46.167Z,0.34
2023-03-05T04:10:49.867Z,0.33
2023-03-05T04:15:54.804Z,0.32
2023-03-05T04:20:59.384Z,0.32
2023-03-05T04:26:04.110Z,0.32
2023-03-05T04:31:09.133Z,0.34
2023-03-05T04:36:13.572Z,0.36
2023-03-05T04:41:17.899Z,0.36
2023-03-05T04:46:23.443Z,0.39
2023-03-05T04:51:28.131Z,0.42
2023-03-05T04:56:32.868Z,0.42
2023-03-05T05:01:38.455Z,0.45
2023-03-05T05:06:42.583Z,0.49
2023-03-05T05:11:47.142Z,0.55
2023-03-05T05:16:51.958Z,0.62
2023-03-05T05:21:56.373Z,0.67
2023-03-05T05:27:00.565Z,0.70
2023-03-05T05:32:05.634Z,0.72
2023-03-05T05:37:09.894Z,0.74
2023-03-05T05:42:22.933Z,0.76
2023-03-05T05:47:27.318Z,0.77
2023-03-05T05:52:31.732Z,0.79
2023-03-05T05:57:36.092Z,0.80
2023-03-05T06:02:41.213Z,0.81
2023-03-05T06:07:45.569Z,0.82
2023-03-05T06:12:50.399Z,0.84
2023-03-05T06:17:55.344Z,0.89
2023-03-05T06:22:58.947Z,0.93
2023-03-05T06:28:03.011Z,0.98
2023-03-05T06:33:08.514Z,1.05
2023-03-05T06:38:13.287Z,1.13
2023-03-05T06:43:17.874Z,1.15
2023-03-05T06:48:22.402Z,1.15
2023-03-05T06:53:28.293Z,1.17
2023-03-05T06:58:32.563Z,1.24
2023-03-05T07:03:36.953Z,1.27
2023-03-05T07:08:41.135Z,1.33
2023-03-05T07:13:48.072Z,1.36
2023-03-05T07:18:52.826Z,1.43
2023-03-05T07:23:59.076Z,1.57
2023-03-05T07:29:04.742Z,1.75
2023-03-05T07:34:08.493Z,1.93
2023-03-05T07:39:13.249Z,2.10
2023-03-05T07:44:18.626Z,2.22
2023-03-05T07:49:24.090Z,2.30
2023-03-05T07:54:27.863Z,2.36
2023-03-05T07:59:31.576Z,2.43
2023-03-05T08:04:36.492Z,2.46
2023-03-05T08:09:43.082Z,2.42
2023-03-05T08:14:48.339Z,2.34
2023-03-05T08:19:52.085Z,2.25
2023-03-05T08:24:57.523Z,2.25
2023-03-05T08:30:03.037Z,2.33
2023-03-05T08:35:12.424Z,2.42
2023-03-05T08:40:18.372Z,2.46
2023-03-05T08:45:22.126Z,2.44
2023-03-05T08:50:27.516Z,2.35
2023-03-05T08:55:31.293Z,2.43
2023-03-05T09:00:34.739Z,2.46
2023-03-05T09:05:39.161Z,2.41
2023-03-05T09:10:44.229Z,2.38
2023-03-05T09:15:56.607Z,2.45
2023-03-05T09:21:05.183Z,2.53
2023-03-05T09:26:10.412Z,2.53
2023-03-05T09:31:14.690Z,2.50
2023-03-05T09:36:31.991Z,2.33
2023-03-05T09:41:53.799Z,2.14
2023-03-05T09:47:15.391Z,2.08
2023-03-05T09:52:29.540Z,2.24
2023-03-05T09:57:42.229Z,2.42
2023-03-05T10:02:52.453Z,2.61
2023-03-05T10:08:01.393Z,2.79
2023-03-05T10:13:12.851Z,3.02
2023-03-05T10:18:57.392Z,3.28
2023-03-05T10:24:17.117Z,3.41
2023-03-05T10:30:08.593Z,3.47
2023-03-05T10:36:00.520Z,3.58
2023-03-05T10:41:33.089Z,3.75
2023-03-05T10:46:38.383Z,4.05
2023-03-05T10:51:57.911Z,4.05
2023-03-05T10:57:22.423Z,3.74
2023-03-05T11:02:28.767Z,3.49
2023-03-05T11:07:35.962Z,3.34
2023-03-05T11:12:42.511Z,3.21
2023-03-05T11:18:16.533Z,3.15
2023-03-05T11:23:25.272Z,3.37
2023-03-05T11:28:39.529Z,3.59
2023-03-05T11:34:07.051Z,3.82
2023-03-05T11:39:22.676Z,4.19
2023-03-05T11:44:37.909Z,4.57
2023-03-05T11:49:46.556Z,5.02
2023-03-05T11:54:53.719Z,5.30
2023-03-05T11:59:59.195Z,5.24
2023-03-05T12:05:06.703Z,5.03
2023-03-05T12:10:19.377Z,4.91
2023-03-05T12:15:46.886Z,4.64
2023-03-05T12:21:26.447Z,4.05
2023-03-05T12:27:24.358Z,3.16
2023-03-05T12:32:48.604Z,2.67
2023-03-05T12:37:54.007Z,2.55
2023-03-05T12:43:01.248Z,2.60
2023-03-05T12:48:11.170Z,2.69
2023-03-05T12:53:18.748Z,2.84
2023-03-05T12:58:43.961Z,3.00
2023-03-05T13:04:15.346Z,3.20
2023-03-05T13:09:28.090Z,3.32
2023-03-05T13:14:40.964Z,3.28
2023-03-05T13:19:46.388Z,3.17
2023-03-05T13:25:12.950Z,3.15
2023-03-05T13:30:26.168Z,3.13
2023-03-05T13:35:38.439Z,3.14
2023-03-05T13:40:49.197Z,3.06
2023-03-05T13:45:57.174Z,2.98
2023-03-05T13:51:02.275Z,2.85
2023-03-05T13:56:13.126Z,2.70
2023-03-05T14:01:24.327Z,2.48
2023-03-05T14:06:31.210Z,2.33
2023-03-05T14:11:36.917Z,2.22
2023-03-05T14:16:42.179Z,2.22
2023-03-05T14:21:55.030Z,2.33
2023-03-05T14:27:00.810Z,2.58
2023-03-05T14:32:26.168Z,2.80
2023-03-05T14:37:47.155Z,3.02
2023-03-05T14:42:57.683Z,3.13
2023-03-05T14:48:06.986Z,3.14
2023-03-05T14:53:24.083Z,3.10
2023-03-05T14:58:32.860Z,3.03
2023-03-05T15:03:39.946Z,2.93
2023-03-05T15:08:44.883Z,2.83
2023-03-05T15:13:53.480Z,2.71
2023-03-05T15:19:08.379Z,2.60
2023-03-05T15:24:17.748Z,2.48
2023-03-05T15:29:24.463Z,2.41
2023-03-05T15:34:30.341Z,2.26
2023-03-05T15:39:35.679Z,2.11
2023-03-05T15:44:42.859Z,1.97
2023-03-05T15:49:47.708Z,1.87
2023-03-05T15:54:55.627Z,1.81
2023-03-05T16:00:04.326Z,1.76
2023-03-05T16:05:17.724Z,1.70
2023-03-05T16:10:30.532Z,1.66
2023-03-05T16:15:40.424Z,1.63
2023-03-05T16:20:47.092Z,1.60
2023-03-05T16:26:02.588Z,1.56
2023-03-05T16:31:08.824Z,1.53
2023-03-05T16:36:29.384Z,1.50
2023-03-05T16:41:40.334Z,1.46
2023-03-05T16:46:50.517Z,1.40
2023-03-05T16:52:01.424Z,1.30
2023-03-05T16:57:11.449Z,1.17
2023-03-05T17:02:20.145Z,1.04
2023-03-05T17:07:27.582Z,0.93
2023-03-05T17:12:37.626Z,0.86
2023-03-05T17:17:52.182Z,0.77
2023-03-05T17:23:03.299Z,0.68
2023-03-05T17:28:10.342Z,0.61
2023-03-05T17:33:31.929Z,0.57
2023-03-05T17:38:43.513Z,0.53
2023-03-05T17:43:52.682Z,0.51
2023-03-05T17:49:02.122Z,0.50
2023-03-05T17:54:13.941Z,0.50
2023-03-05T17:59:22.712Z,0.48
2023-03-05T18:04:35.647Z,0.47
2023-03-05T18:09:44.664Z,0.44
2023-03-05T18:14:53.583Z,0.39
2023-03-05T18:20:03.898Z,0.33
2023-03-05T18:25:13.409Z,0.25
2023-03-05T18:30:20.721Z,0.19
2023-03-05T18:35:30.230Z,0.12
2023-03-05T18:40:40.259Z,0.04
2023-03-05T18:45:52.608Z,-0.06
2023-03-05T18:51:00.236Z,-0.13
2023-03-05T18:56:12.538Z,-0.18
2023-03-05T19:01:21.873Z,-0.25
2023-03-05T19:06:30.047Z,-0.32
2023-03-05T19:11:38.631Z,-0.39
2023-03-05T19:16:47.204Z,-0.45
2023-03-05T19:21:59.225Z,-0.50
2023-03-05T19:27:15.475Z,-0.53
2023-03-05T19:32:25.226Z,-0.55
2023-03-05T19:37:33.225Z,-0.57
2023-03-05T19:42:44.313Z,-0.57
2023-03-05T19:48:34.875Z,-0.55
2023-03-05T19:53:54.798Z,-0.51
2023-03-05T19:59:07.157Z,-0.48
2023-03-05T20:04:22.097Z,-0.46
2023-03-05T20:09:30.208Z,-0.44
2023-03-05T20:14:45.057Z,-0.40
2023-03-05T20:20:35.394Z,-0.36
2023-03-05T20:25:53.176Z,-0.34
2023-03-05T20:31:01.638Z,-0.33
2023-03-05T20:36:10.777Z,-0.33
2023-03-05T20:41:25.373Z,-0.33
2023-03-05T20:47:26.464Z,-0.35
2023-03-05T20:52:34.764Z,-0.34
2023-03-05T20:57:41.225Z,-0.34
2023-03-05T21:02:47.865Z,-0.33
2023-03-05T21:07:57.633Z,-0.32
2023-03-05T21:13:06.826Z,-0.30
2023-03-05T21:18:13.566Z,-0.29
2023-03-05T21:23:19.225Z,-0.29
2023-03-05T21:28:24.813Z,-0.26
2023-03-05T21:33:31.628Z,-0.24
2023-03-05T21:38:37.182Z,-0.26
2023-03-05T21:43:42.575Z,-0.25
2023-03-05T21:48:48.068Z,-0.25
2023-03-05T21:53:52.142Z,-0.26
2023-03-05T21:58:56.229Z,-0.25
2023-03-05T22:04:00.730Z,-0.24
2023-03-05T22:09:06.199Z,-0.19
2023-03-05T22:14:10.838Z,-0.15
2023-03-05T22:19:14.854Z,-0.12
2023-03-05T22:24:18.627Z,-0.09
2023-03-05T22:29:22.402Z,-0.09
2023-03-05T22:34:26.165Z,-0.08
2023-03-05T22:39:30.042Z,-0.05
2023-03-05T22:44:33.848Z,-0.06
2023-03-05T22:49:37.532Z,-0.07
2023-03-05T22:54:41.379Z,-0.09
2023-03-05T22:59:45.312Z,-0.13
2023-03-05T23:05:01.821Z,-0.16
2023-03-05T23:10:08.889Z,-0.19
2023-03-05T23:15:15.607Z,-0.22
2023-03-05T23:20:21.532Z,-0.28
2023-03-05T23:25:28.292Z,-0.39
2023-03-05T23:30:35.023Z,-0.57
2023-03-05T23:35:49.190Z,-0.75
2023-03-05T23:40:55.299Z,-0.96
2023-03-05T23:46:02.538Z,-1.19
2023-03-05T23:51:10.576Z,-1.40
2023-03-05T23:56:14.379Z,-1.56
